createdAt,value
2023-07-24T00:01:30.697Z,85.51
2023-07-24T00:03:59.943Z,85.10
2023-07-24T00:06:28.286Z,85.14
2023-07-24T00:08:56.235Z,84.97
2023-07-24T00:11:24.145Z,85.26
2023-07-24T00:13:51.780Z,85.34
2023-07-24T00:16:19.564Z,85.10
2023-07-24T00:18:48.580Z,84.99
2023-07-24T00:21:16.421Z,84.82
2023-07-24T00:23:44.087Z,84.71
2023-07-24T00:26:11.913Z,84.58
2023-07-24T00:28:39.567Z,84.81
2023-07-24T00:31:07.266Z,84.92
2023-07-24T00:33:35.119Z,85.03
2023-07-24T00:36:04.181Z,84.76
2023-07-24T00:38:31.830Z,84.79
2023-07-24T00:40:59.955Z,85.10
2023-07-24T00:43:28.088Z,84.73
2023-07-24T00:45:57.852Z,84.72
2023-07-24T00:48:25.931Z,84.67
2023-07-24T00:50:53.622Z,85.13
2023-07-24T00:53:23.150Z,85.50
2023-07-24T00:55:50.853Z,85.42
2023-07-24T00:58:19.438Z,85.43
2023-07-24T01:00:47.273Z,86.06
2023-07-24T01:03:15.298Z,85.31
2023-07-24T01:05:43.074Z,86.79
2023-07-24T01:08:10.969Z,86.28
2023-07-24T01:10:40.021Z,86.26
2023-07-24T01:13:16.824Z,87.04
2023-07-24T01:15:50.736Z,86.72
2023-07-24T01:18:19.754Z,86.01
2023-07-24T01:20:51.943Z,86.85
2023-07-24T01:23:39.993Z,86.34
2023-07-24T01:26:10.107Z,85.85
2023-07-24T01:28:37.786Z,86.33
2023-07-24T01:31:05.785Z,86.43
2023-07-24T01:33:36.442Z,86.29
2023-07-24T01:36:05.635Z,86.28
2023-07-24T01:38:33.854Z,87.06
2023-07-24T01:41:02.330Z,88.30
2023-07-24T01:43:33.093Z,86.80
2023-07-24T01:46:01.107Z,86.20
2023-07-24T01:48:28.787Z,85.54
2023-07-24T01:50:56.699Z,83.45
2023-07-24T01:53:24.359Z,83.18
2023-07-24T01:55:52.105Z,83.75
2023-07-24T01:58:19.752Z,84.20
2023-07-24T02:00:49.435Z,83.82
2023-07-24T02:03:17.130Z,83.86
2023-07-24T02:05:51.614Z,83.91
2023-07-24T02:08:19.502Z,82.79
2023-07-24T02:10:50.863Z,81.73
2023-07-24T02:13:18.704Z,81.50
2023-07-24T02:15:51.875Z,81.57
2023-07-24T02:18:19.611Z,81.09
2023-07-24T02:20:51.516Z,80.14
2023-07-24T02:23:19.406Z,81.86
2023-07-24T02:25:47.049Z,82.92
2023-07-24T02:28:14.824Z,84.05
2023-07-24T02:30:42.496Z,88.75
2023-07-24T02:33:11.523Z,91.88
2023-07-24T02:35:42.816Z,91.87
2023-07-24T02:38:10.953Z,91.75
2023-07-24T02:40:43.105Z,92.70
2023-07-24T02:43:10.800Z,93.76
2023-07-24T02:45:40.204Z,93.90
2023-07-24T02:48:08.259Z,92.66
2023-07-24T02:50:37.394Z,92.09
2023-07-24T02:53:05.583Z,90.94
2023-07-24T02:55:33.312Z,90.50
2023-07-24T02:58:01.170Z,90.86
2023-07-24T03:00:28.844Z,90.50
2023-07-24T03:02:56.841Z,90.70
2023-07-24T03:05:24.727Z,89.97
2023-07-24T03:07:53.846Z,89.76
2023-07-24T03:10:21.756Z,89.65
2023-07-24T03:12:49.548Z,88.82
2023-07-24T03:15:17.228Z,89.04
2023-07-24T03:17:45.083Z,89.13
2023-07-24T03:20:17.561Z,89.25
2023-07-24T03:22:46.109Z,89.57
2023-07-24T03:25:15.156Z,89.73
2023-07-24T03:27:43.652Z,89.87
2023-07-24T03:30:12.322Z,90.35
2023-07-24T03:32:40.026Z,90.90
2023-07-24T03:35:08.721Z,90.75
2023-07-24T03:37:37.101Z,91.07
2023-07-24T03:40:06.871Z,91.43
2023-07-24T03:42:35.892Z,91.63
2023-07-24T03:45:03.920Z,91.27
2023-07-24T03:47:31.660Z,91.85
2023-07-24T03:49:59.522Z,92.02
2023-07-24T03:52:27.438Z,91.91
2023-07-24T03:54:55.146Z,91.97
2023-07-24T03:57:22.921Z,91.76
2023-07-24T03:59:52.083Z,91.85
2023-07-24T04:02:19.790Z,91.95
2023-07-24T04:04:47.589Z,92.43
2023-07-24T04:07:15.232Z,92.48
2023-07-24T04:09:42.880Z,92.65
2023-07-24T04:12:10.549Z,92.64
2023-07-24T04:14:38.216Z,94.26
2023-07-24T04:17:07.818Z,93.94
2023-07-24T04:19:36.236Z,94.23
2023-07-24T04:22:04.020Z,93.76
2023-07-24T04:24:31.676Z,93.62
2023-07-24T04:26:59.374Z,93.44
2023-07-24T04:29:27.174Z,93.37
2023-07-24T04:31:54.908Z,92.75
2023-07-24T04:34:23.984Z,92.80
2023-07-24T04:36:51.896Z,93.24
2023-07-24T04:39:19.561Z,93.96
2023-07-24T04:41:47.525Z,93.52
2023-07-24T04:44:15.168Z,93.92
2023-07-24T04:46:43.053Z,93.29
2023-07-24T04:49:10.757Z,93.69
2023-07-24T04:51:40.026Z,93.75
2023-07-24T04:54:07.706Z,93.71
2023-07-24T04:56:35.479Z,93.13
2023-07-24T04:59:03.168Z,92.14
2023-07-24T05:01:30.995Z,91.28
2023-07-24T05:03:58.697Z,90.64
2023-07-24T05:06:26.593Z,90.03
2023-07-24T05:08:55.909Z,89.47
2023-07-24T05:11:23.575Z,89.52
2023-07-24T05:13:51.462Z,90.35
2023-07-24T05:16:19.188Z,90.59
2023-07-24T05:18:47.065Z,90.39
2023-07-24T05:21:14.746Z,90.69
2023-07-24T05:23:42.653Z,90.48
2023-07-24T05:26:11.665Z,88.85
2023-07-24T05:28:39.557Z,87.71
2023-07-24T05:31:09.008Z,86.90
2023-07-24T05:33:36.921Z,87.36
2023-07-24T05:36:05.813Z,86.44
2023-07-24T05:38:33.799Z,85.35
2023-07-24T05:41:03.021Z,83.24
2023-07-24T05:43:33.478Z,82.86
2023-07-24T05:46:01.184Z,83.34
2023-07-24T05:48:29.036Z,83.79
2023-07-24T05:50:56.673Z,84.26
2023-07-24T05:53:24.446Z,84.26
2023-07-24T05:55:59.028Z,84.49
2023-07-24T05:58:26.698Z,85.30
2023-07-24T06:00:56.262Z,85.61
2023-07-24T06:03:24.252Z,85.88
2023-07-24T06:05:55.604Z,85.92
2023-07-24T06:08:23.823Z,87.23
2023-07-24T06:10:52.397Z,87.20
2023-07-24T06:13:20.429Z,85.02
2023-07-24T06:15:49.598Z,83.86
2023-07-24T06:18:18.638Z,83.67
2023-07-24T06:20:46.598Z,79.71
2023-07-24T06:23:14.274Z,81.06
2023-07-24T06:25:42.045Z,81.42
2023-07-24T06:28:09.699Z,81.65
2023-07-24T06:30:37.484Z,83.62
2023-07-24T06:33:05.179Z,86.48
2023-07-24T06:35:34.225Z,92.08
2023-07-24T06:38:01.882Z,80.45
2023-07-24T06:40:29.787Z,85.42
2023-07-24T06:42:57.559Z,85.09
2023-07-24T06:45:25.600Z,85.60
2023-07-24T06:47:53.425Z,86.80
2023-07-24T06:50:21.268Z,88.25
2023-07-24T06:52:51.967Z,92.25
2023-07-24T06:55:19.762Z,94.51
2023-07-24T06:57:47.453Z,96.00
2023-07-24T07:00:16.298Z,97.10
2023-07-24T07:02:44.101Z,97.55
2023-07-24T07:05:11.927Z,97.91
2023-07-24T07:07:40.438Z,98.15
2023-07-24T07:10:10.533Z,98.44
2023-07-24T07:12:38.362Z,98.01
2023-07-24T07:15:06.845Z,96.95
2023-07-24T07:17:34.525Z,97.04
2023-07-24T07:20:02.221Z,97.47
2023-07-24T07:22:30.122Z,98.10
2023-07-24T07:24:57.809Z,97.89
2023-07-24T07:27:27.130Z,97.45
2023-07-24T07:29:54.805Z,97.36
2023-07-24T07:32:22.763Z,96.46
2023-07-24T07:34:50.484Z,98.60
2023-07-24T07:37:18.281Z,98.04
2023-07-24T07:39:46.042Z,97.74
2023-07-24T07:42:18.423Z,96.43
2023-07-24T07:44:48.402Z,95.65
2023-07-24T07:47:16.458Z,95.16
2023-07-24T07:49:44.108Z,94.57
2023-07-24T07:52:11.986Z,93.88
2023-07-24T07:54:39.690Z,93.03
2023-07-24T07:57:07.427Z,92.78
2023-07-24T07:59:36.178Z,92.28
2023-07-24T08:02:05.766Z,92.60
2023-07-24T08:04:33.438Z,92.92
2023-07-24T08:07:01.379Z,92.18
2023-07-24T08:09:29.062Z,91.75
2023-07-24T08:11:56.878Z,91.93
2023-07-24T08:14:24.552Z,92.17
2023-07-24T08:16:53.705Z,91.49
2023-07-24T08:19:22.787Z,91.07
2023-07-24T08:21:50.456Z,91.20
2023-07-24T08:24:18.137Z,90.09
2023-07-24T08:26:46.025Z,89.97
2023-07-24T08:29:14.353Z,88.59
2023-07-24T08:31:42.143Z,88.37
2023-07-24T08:34:10.047Z,88.29
2023-07-24T08:36:39.085Z,87.74
2023-07-24T08:39:07.071Z,88.53
2023-07-24T08:41:35.779Z,87.55
2023-07-24T08:44:03.955Z,87.02
2023-07-24T08:46:31.908Z,85.10
2023-07-24T08:49:00.211Z,85.61
2023-07-24T08:51:28.385Z,87.90
2023-07-24T08:53:58.763Z,86.19
2023-07-24T08:56:26.414Z,84.25
2023-07-24T08:58:54.184Z,84.39
2023-07-24T09:01:21.858Z,83.13
2023-07-24T09:03:52.078Z,82.70
2023-07-24T09:06:20.855Z,83.30
2023-07-24T09:08:48.647Z,82.19
2023-07-24T09:11:17.657Z,80.42
2023-07-24T09:13:46.356Z,80.96
2023-07-24T09:16:23.937Z,77.35
2023-07-24T09:18:59.859Z,78.21
2023-07-24T09:21:38.358Z,78.06
2023-07-24T09:24:14.297Z,79.75
2023-07-24T09:26:58.443Z,79.92
2023-07-24T09:29:33.090Z,77.63
2023-07-24T09:32:01.067Z,77.67
2023-07-24T09:34:28.883Z,80.05
2023-07-24T09:36:56.781Z,78.19
2023-07-24T09:39:29.885Z,78.14
2023-07-24T09:42:06.700Z,76.64
2023-07-24T09:44:34.549Z,76.97
2023-07-24T09:47:29.963Z,78.84
2023-07-24T09:49:53.280Z,77.78
2023-07-24T09:52:21.943Z,76.92
2023-07-24T09:54:58.100Z,76.99
2023-07-24T09:57:28.486Z,77.49
2023-07-24T09:59:58.568Z,77.01
2023-07-24T10:02:27.296Z,76.66
2023-07-24T10:04:55.545Z,76.73
2023-07-24T10:07:24.804Z,77.33
2023-07-24T10:09:53.531Z,78.40
2023-07-24T10:12:22.421Z,78.37
2023-07-24T10:14:51.870Z,77.17
2023-07-24T10:17:36.333Z,74.70
2023-07-24T10:20:06.067Z,73.71
2023-07-24T10:22:34.253Z,72.26
2023-07-24T10:25:02.448Z,72.89
2023-07-24T10:27:30.378Z,72.04
2023-07-24T10:30:14.852Z,71.93
2023-07-24T10:32:55.250Z,68.51
2023-07-24T10:35:24.367Z,68.50
2023-07-24T10:38:01.827Z,69.20
2023-07-24T10:40:29.576Z,67.01
2023-07-24T10:43:07.648Z,67.54
2023-07-24T10:45:44.599Z,65.86
2023-07-24T10:48:13.387Z,65.00
2023-07-24T10:50:42.261Z,63.46
2023-07-24T10:53:10.749Z,64.17
2023-07-24T10:55:38.805Z,63.50
2023-07-24T10:58:08.160Z,60.37
2023-07-24T11:00:35.977Z,60.92
2023-07-24T11:03:05.185Z,59.56
2023-07-24T11:05:33.658Z,61.79
2023-07-24T11:08:01.481Z,61.60
2023-07-24T11:10:31.624Z,61.09
2023-07-24T11:12:59.302Z,61.07
2023-07-24T11:15:28.786Z,59.43
2023-07-24T11:17:56.538Z,60.87
2023-07-24T11:20:25.901Z,61.48
2023-07-24T11:22:53.704Z,62.31
2023-07-24T11:25:21.602Z,60.45
2023-07-24T11:27:49.260Z,62.88
2023-07-24T11:30:21.911Z,61.75
2023-07-24T11:32:50.974Z,61.64
2023-07-24T11:35:19.157Z,61.71
2023-07-24T11:37:48.337Z,62.32
2023-07-24T11:40:16.706Z,67.04
2023-07-24T11:42:46.197Z,70.76
2023-07-24T11:45:14.104Z,73.31
2023-07-24T11:47:46.801Z,75.91
2023-07-24T11:50:15.431Z,80.74
2023-07-24T11:52:45.492Z,85.04
2023-07-24T11:55:16.171Z,86.63
2023-07-24T11:57:44.012Z,89.35
2023-07-24T12:00:21.324Z,89.57
2023-07-24T12:02:49.216Z,90.04
2023-07-24T12:05:17.025Z,90.92
2023-07-24T12:07:47.434Z,89.88
2023-07-24T12:10:28.575Z,89.03
2023-07-24T12:12:59.974Z,88.77
2023-07-24T12:15:27.742Z,89.73
2023-07-24T12:17:55.679Z,90.34
2023-07-24T12:20:23.373Z,92.01
2023-07-24T12:22:51.491Z,91.83
2023-07-24T12:25:21.021Z,93.95
2023-07-24T12:27:48.941Z,93.67
2023-07-24T12:30:16.810Z,93.34
2023-07-24T12:32:44.513Z,93.40
2023-07-24T12:35:14.780Z,94.32
2023-07-24T12:37:44.091Z,94.83
2023-07-24T12:40:12.286Z,94.70
2023-07-24T12:42:41.586Z,93.93
2023-07-24T12:45:09.957Z,93.16
2023-07-24T12:47:37.612Z,93.50
2023-07-24T12:50:07.692Z,92.58
2023-07-24T12:52:36.121Z,91.70
2023-07-24T12:55:03.988Z,90.62
2023-07-24T12:57:31.644Z,89.55
2023-07-24T13:00:00.859Z,90.07
2023-07-24T13:02:29.199Z,89.50
2023-07-24T13:04:57.005Z,87.83
2023-07-24T13:07:24.689Z,87.04
2023-07-24T13:09:52.318Z,86.60
2023-07-24T13:12:19.986Z,86.59
2023-07-24T13:14:47.778Z,86.88
2023-07-24T13:17:16.785Z,83.89
2023-07-24T13:19:44.433Z,77.74
2023-07-24T13:22:12.084Z,79.75
2023-07-24T13:24:39.786Z,78.32
2023-07-24T13:27:08.212Z,76.50
2023-07-24T13:29:35.863Z,76.70
2023-07-24T13:32:05.248Z,77.48
2023-07-24T13:34:34.325Z,79.05
2023-07-24T13:37:02.569Z,76.19
2023-07-24T13:39:32.475Z,75.24
2023-07-24T13:42:00.212Z,74.82
2023-07-24T13:44:27.856Z,77.14
2023-07-24T13:46:57.175Z,76.05
2023-07-24T13:49:24.853Z,75.27
2023-07-24T13:51:53.874Z,73.61
2023-07-24T13:54:21.526Z,75.16
2023-07-24T13:56:49.399Z,75.60
2023-07-24T13:59:17.276Z,73.26
2023-07-24T14:01:45.860Z,73.98
2023-07-24T14:04:13.753Z,74.87
2023-07-24T14:06:42.258Z,75.32
2023-07-24T14:09:11.236Z,75.28
2023-07-24T14:11:39.081Z,77.12
2023-07-24T14:14:06.718Z,71.68
2023-07-24T14:16:34.621Z,71.09
2023-07-24T14:19:02.304Z,73.20
2023-07-24T14:21:30.263Z,72.17
2023-07-24T14:23:58.758Z,73.31
2023-07-24T14:26:28.134Z,73.86
2023-07-24T14:28:56.941Z,68.76
2023-07-24T14:31:25.716Z,70.00
2023-07-24T14:33:53.464Z,70.84
2023-07-24T14:36:21.111Z,70.09
2023-07-24T14:38:49.008Z,69.71
2023-07-24T14:41:16.802Z,69.21
2023-07-24T14:43:45.939Z,69.04
2023-07-24T14:46:13.653Z,70.11
2023-07-24T14:48:41.456Z,70.61
2023-07-24T14:51:09.153Z,69.37
2023-07-24T14:53:37.528Z,69.15
2023-07-24T14:56:05.526Z,68.16
2023-07-24T14:58:33.232Z,67.50
2023-07-24T15:01:02.268Z,66.17
2023-07-24T15:03:30.364Z,68.65
2023-07-24T15:06:01.404Z,69.05
2023-07-24T15:08:29.164Z,68.81
2023-07-24T15:10:56.836Z,69.71
2023-07-24T15:13:24.610Z,70.89
2023-07-24T15:15:52.769Z,70.97
2023-07-24T15:18:21.990Z,72.29
2023-07-24T15:20:49.836Z,70.96
2023-07-24T15:23:18.848Z,70.37
2023-07-24T15:25:46.522Z,72.05
2023-07-24T15:28:14.614Z,71.96
2023-07-24T15:30:42.319Z,72.76
2023-07-24T15:33:09.957Z,75.06
2023-07-24T15:35:40.090Z,75.91
2023-07-24T15:38:07.830Z,76.48
2023-07-24T15:40:35.755Z,76.25
2023-07-24T15:43:03.434Z,77.36
2023-07-24T15:45:31.118Z,78.09
2023-07-24T15:47:58.906Z,77.76
2023-07-24T15:50:26.935Z,78.38
2023-07-24T15:52:55.932Z,80.91
2023-07-24T15:55:23.594Z,80.24
2023-07-24T15:57:51.279Z,81.83
2023-07-24T16:00:19.548Z,82.51
2023-07-24T16:02:47.298Z,81.37
2023-07-24T16:05:19.587Z,81.57
2023-07-24T16:07:47.604Z,82.57
2023-07-24T16:10:17.934Z,82.81
2023-07-24T16:12:45.633Z,83.61
2023-07-24T16:15:13.370Z,82.87
2023-07-24T16:18:05.639Z,82.83
2023-07-24T16:20:29.566Z,84.96
2023-07-24T16:22:57.199Z,83.79
2023-07-24T16:25:26.281Z,83.36
2023-07-24T16:27:54.205Z,82.21
2023-07-24T16:30:22.447Z,82.49
2023-07-24T16:32:50.848Z,83.29
2023-07-24T16:35:18.828Z,84.17
2023-07-24T16:37:46.672Z,84.86
2023-07-24T16:40:14.784Z,85.46
2023-07-24T16:42:46.278Z,85.71
2023-07-24T16:45:29.039Z,85.48
2023-07-24T16:48:03.481Z,86.81
2023-07-24T16:50:33.018Z,86.41
2023-07-24T16:53:00.733Z,87.09
2023-07-24T16:55:30.174Z,87.86
2023-07-24T16:57:59.679Z,87.04
2023-07-24T17:00:27.587Z,87.60
2023-07-24T17:02:55.306Z,88.64
2023-07-24T17:05:23.406Z,89.36
2023-07-24T17:07:51.370Z,88.13
2023-07-24T17:10:20.084Z,89.96
2023-07-24T17:12:47.774Z,89.98
2023-07-24T17:15:17.013Z,89.43
2023-07-24T17:17:46.116Z,86.90
2023-07-24T17:20:14.090Z,85.26
2023-07-24T17:22:42.576Z,84.09
2023-07-24T17:25:10.864Z,84.13
2023-07-24T17:27:39.462Z,86.11
2023-07-24T17:30:08.681Z,85.33
2023-07-24T17:32:37.755Z,84.70
2023-07-24T17:35:06.636Z,84.40
2023-07-24T17:37:38.557Z,84.69
2023-07-24T17:40:08.445Z,84.29
2023-07-24T17:42:36.767Z,84.29
2023-07-24T17:45:04.907Z,83.67
2023-07-24T17:47:33.861Z,84.39
2023-07-24T17:52:34.040Z,84.10
2023-07-24T17:55:01.712Z,83.87
2023-07-24T17:57:29.640Z,84.57
2023-07-24T17:59:57.333Z,84.09
2023-07-24T18:02:25.690Z,85.76
2023-07-24T18:04:53.368Z,85.54
2023-07-24T18:07:22.614Z,85.95
2023-07-24T18:09:50.294Z,86.03
2023-07-24T18:12:18.674Z,86.82
2023-07-24T18:14:46.354Z,87.00
2023-07-24T18:17:14.124Z,86.44
2023-07-24T18:19:41.799Z,86.33
2023-07-24T18:22:09.618Z,86.46
2023-07-24T18:24:38.688Z,85.98
2023-07-24T18:27:07.084Z,86.51
2023-07-24T18:29:34.760Z,85.96
2023-07-24T18:32:02.719Z,85.28
2023-07-24T18:34:30.439Z,85.21
2023-07-24T18:36:58.186Z,86.59
2023-07-24T18:39:26.241Z,87.40
2023-07-24T18:41:55.465Z,91.67
2023-07-24T18:44:23.129Z,91.08
2023-07-24T18:46:51.083Z,91.44
2023-07-24T18:49:18.915Z,90.64
2023-07-24T18:51:46.575Z,90.79
2023-07-24T18:54:15.588Z,89.42
2023-07-24T18:56:43.563Z,88.65
2023-07-24T18:59:12.708Z,88.92
2023-07-24T19:01:40.382Z,88.78
2023-07-24T19:04:08.196Z,89.21
2023-07-24T19:06:38.360Z,89.57
2023-07-24T19:09:06.788Z,89.35
2023-07-24T19:11:34.688Z,90.17
2023-07-24T19:14:02.498Z,90.76
2023-07-24T19:16:31.545Z,91.48
2023-07-24T19:19:03.745Z,91.44
2023-07-24T19:21:31.898Z,91.31
2023-07-24T19:23:59.934Z,91.40
2023-07-24T19:26:27.697Z,91.34
2023-07-24T19:28:55.522Z,91.21
2023-07-24T19:31:23.212Z,91.21
2023-07-24T19:33:52.224Z,91.11
2023-07-24T19:36:20.285Z,91.35
2023-07-24T19:38:47.970Z,91.33
2023-07-24T19:41:15.656Z,91.51
2023-07-24T19:43:43.514Z,91.60
2023-07-24T19:46:11.290Z,91.81
2023-07-24T19:48:39.135Z,92.29
2023-07-24T19:51:08.649Z,92.38
2023-07-24T19:53:36.367Z,92.02
2023-07-24T19:56:04.005Z,91.62
2023-07-24T19:58:36.249Z,91.83
2023-07-24T20:01:04.860Z,91.70
2023-07-24T20:03:32.824Z,92.45
2023-07-24T20:06:05.223Z,93.37
2023-07-24T20:08:36.449Z,93.71
2023-07-24T20:11:06.429Z,93.11
2023-07-24T20:13:34.985Z,93.02
2023-07-24T20:16:03.218Z,93.46
2023-07-24T20:18:31.254Z,94.21
2023-07-24T20:20:58.918Z,95.55
2023-07-24T20:23:26.613Z,96.36
2023-07-24T20:25:55.687Z,97.01
2023-07-24T20:28:23.463Z,97.35
2023-07-24T20:30:51.520Z,97.54
2023-07-24T20:33:19.350Z,96.73
2023-07-24T20:35:47.534Z,96.19
2023-07-24T20:38:24.306Z,96.50
2023-07-24T20:40:52.740Z,96.69
2023-07-24T20:43:21.815Z,96.81
2023-07-24T20:45:51.628Z,96.40
2023-07-24T20:48:19.466Z,97.49
2023-07-24T20:50:47.320Z,97.55
2023-07-24T20:53:15.053Z,96.87
2023-07-24T20:55:42.912Z,95.40
2023-07-24T20:58:12.110Z,93.97
2023-07-24T21:00:41.293Z,94.36
2023-07-24T21:03:09.018Z,94.80
2023-07-24T21:05:38.219Z,95.56
2023-07-24T21:08:06.671Z,96.88
2023-07-24T21:10:34.320Z,97.29
2023-07-24T21:13:02.099Z,97.54
2023-07-24T21:15:29.862Z,97.45
2023-07-24T21:17:58.981Z,98.05
2023-07-24T21:20:26.623Z,98.08
2023-07-24T21:22:54.449Z,97.84
2023-07-24T21:25:22.168Z,97.69
2023-07-24T21:27:49.853Z,97.49
2023-07-24T21:30:17.724Z,96.84
2023-07-24T21:32:45.598Z,97.04
2023-07-24T21:35:14.581Z,96.86
2023-07-24T21:37:42.829Z,96.74
2023-07-24T21:40:11.191Z,97.40
2023-07-24T21:42:38.846Z,97.64
2023-07-24T21:45:08.113Z,97.90
2023-07-24T21:47:35.955Z,98.37
2023-07-24T21:50:03.702Z,98.00
2023-07-24T21:52:32.810Z,98.22
2023-07-24T21:55:00.466Z,97.67
2023-07-24T21:57:28.485Z,97.91
2023-07-24T21:59:56.162Z,97.53
2023-07-24T22:02:24.160Z,97.02
2023-07-24T22:04:51.893Z,96.81
2023-07-24T22:07:19.782Z,97.09
2023-07-24T22:09:48.776Z,96.87
2023-07-24T22:12:16.588Z,96.80
2023-07-24T22:14:44.231Z,96.17
2023-07-24T22:17:11.898Z,95.84
2023-07-24T22:19:39.796Z,95.64
2023-07-24T22:22:08.071Z,95.84
2023-07-24T22:24:37.912Z,95.98
2023-07-24T22:27:07.790Z,95.61
2023-07-24T22:29:35.464Z,95.20
2023-07-24T22:32:03.120Z,95.25
2023-07-24T22:34:30.793Z,95.26
2023-07-24T22:36:58.457Z,95.08
2023-07-24T22:39:26.476Z,95.13
2023-07-24T22:41:54.173Z,95.08
2023-07-24T22:44:23.329Z,95.37
2023-07-24T22:46:52.025Z,94.99
2023-07-24T22:49:19.870Z,95.05
2023-07-24T22:51:47.696Z,95.15
2023-07-24T22:54:15.479Z,95.05
2023-07-24T22:56:43.202Z,95.21
2023-07-24T22:59:24.506Z,95.50
2023-07-24T23:01:53.626Z,95.06
2023-07-24T23:04:25.326Z,95.54
2023-07-24T23:06:54.102Z,95.74
2023-07-24T23:09:22.030Z,95.89
2023-07-24T23:11:49.684Z,95.46
2023-07-24T23:14:17.475Z,95.36
2023-07-24T23:16:46.524Z,95.31
2023-07-24T23:19:14.452Z,95.24
2023-07-24T23:21:42.318Z,95.11
2023-07-24T23:24:10.125Z,94.36
2023-07-24T23:26:37.811Z,94.06
2023-07-24T23:29:05.712Z,93.95
2023-07-24T23:31:33.702Z,94.43
2023-07-24T23:34:02.984Z,94.41
2023-07-24T23:36:30.864Z,94.91
2023-07-24T23:38:58.492Z,94.82
2023-07-24T23:41:26.812Z,94.72
2023-07-24T23:43:54.637Z,93.99
2023-07-24T23:46:22.487Z,94.15
2023-07-24T23:48:50.181Z,94.62
2023-07-24T23:51:20.346Z,95.15
2023-07-24T23:53:49.205Z,95.27
2023-07-24T23:56:18.857Z,95.48
2023-07-24T23:58:47.403Z,95.74
